createdAt,value
2022-08-14T00:03:04.023Z,60.36
2022-08-14T00:13:06.958Z,62.77
2022-08-14T00:23:14.680Z,63.81
2022-08-14T00:33:15.502Z,64.67
2022-08-14T00:43:05.840Z,66.02
2022-08-14T00:53:04.992Z,66.35
2022-08-14T01:03:06.063Z,65.95
2022-08-14T01:13:05.348Z,66.89
2022-08-14T01:23:05.536Z,69.95
2022-08-14T01:33:05.797Z,68.47
2022-08-14T01:43:05.832Z,67.86
2022-08-14T01:53:06.578Z,67.63
2022-08-14T02:03:06.317Z,67.66
2022-08-14T02:13:06.505Z,68.67
2022-08-14T02:23:08.240Z,71.20
2022-08-14T02:33:06.747Z,71.60
2022-08-14T02:43:07.948Z,72.68
2022-08-14T02:53:07.438Z,72.55
2022-08-14T03:03:07.883Z,74.65
2022-08-14T03:13:07.338Z,76.06
2022-08-14T03:23:08.416Z,76.91
2022-08-14T03:33:07.896Z,76.51
2022-08-14T03:43:07.733Z,78.06
2022-08-14T03:53:08.044Z,76.61
2022-08-14T04:03:08.091Z,79.22
2022-08-14T04:13:08.382Z,80.68
2022-08-14T04:23:10.495Z,80.13
2022-08-14T04:33:17.081Z,79.18
2022-08-14T04:43:14.357Z,80.60
2022-08-14T04:53:10.040Z,79.38
2022-08-14T05:03:09.158Z,79.75
2022-08-14T05:13:13.090Z,80.19
2022-08-14T05:23:11.059Z,79.85
2022-08-14T05:33:09.819Z,79.21
2022-08-14T05:43:10.052Z,77.65
2022-08-14T05:53:10.355Z,76.36
2022-08-14T06:03:10.461Z,75.28
2022-08-14T06:13:10.584Z,78.06
2022-08-14T06:23:10.655Z,72.97
2022-08-14T06:33:10.947Z,64.68
2022-08-14T06:43:10.965Z,62.09
2022-08-14T06:53:11.285Z,59.58
2022-08-14T07:03:11.580Z,59.39
2022-08-14T07:13:11.637Z,52.01
2022-08-14T07:23:20.583Z,53.37
2022-08-14T07:33:12.755Z,50.24
2022-08-14T07:43:14.091Z,49.79
2022-08-14T07:53:12.144Z,47.55
2022-08-14T08:03:13.489Z,45.98
2022-08-14T08:13:12.542Z,43.85
2022-08-14T08:23:20.644Z,43.90
2022-08-14T08:33:14.009Z,44.58
2022-08-14T08:43:13.316Z,44.24
2022-08-14T08:53:13.694Z,43.08
2022-08-14T09:03:13.565Z,41.95
2022-08-14T09:13:13.596Z,41.20
2022-08-14T09:23:16.944Z,43.13
2022-08-14T09:33:14.445Z,44.26
2022-08-14T09:43:15.060Z,44.38
2022-08-14T09:53:18.500Z,44.06
2022-08-14T10:03:14.453Z,42.36
2022-08-14T10:13:14.585Z,43.88
2022-08-14T10:23:16.452Z,40.01
2022-08-14T10:33:14.866Z,39.07
2022-08-14T10:43:15.010Z,39.68
2022-08-14T10:53:15.299Z,42.02
2022-08-14T11:03:19.785Z,42.52
2022-08-14T11:13:16.434Z,42.91
2022-08-14T11:23:15.718Z,43.85
2022-08-14T11:33:16.227Z,45.62
2022-08-14T11:43:16.420Z,45.72
2022-08-14T11:53:16.091Z,43.36
2022-08-14T12:03:22.607Z,43.73
2022-08-14T12:13:17.826Z,43.06
2022-08-14T12:23:16.685Z,41.61
2022-08-14T12:33:16.777Z,42.67
2022-08-14T12:43:17.001Z,42.65
2022-08-14T12:53:17.525Z,40.69
2022-08-14T13:03:17.364Z,40.31
2022-08-14T13:13:17.852Z,44.58
2022-08-14T13:23:17.698Z,40.08
2022-08-14T13:33:17.779Z,41.86
2022-08-14T13:43:17.839Z,38.89
2022-08-14T13:53:18.086Z,39.81
2022-08-14T14:03:18.408Z,40.11
2022-08-14T14:13:18.480Z,41.27
2022-08-14T14:23:18.638Z,43.71
2022-08-14T14:33:44.634Z,42.36
2022-08-14T14:43:19.760Z,44.43
2022-08-14T14:53:19.278Z,42.28
2022-08-14T15:03:19.124Z,41.93
2022-08-14T15:13:19.318Z,41.98
2022-08-14T15:23:22.240Z,40.90
2022-08-14T15:33:19.615Z,41.53
2022-08-14T15:43:19.836Z,41.88
2022-08-14T15:53:20.152Z,40.56
2022-08-14T16:03:27.916Z,38.50
2022-08-14T16:13:39.378Z,39.94
2022-08-14T16:23:21.523Z,40.92
2022-08-14T16:33:56.832Z,42.24
2022-08-14T16:43:22.828Z,42.18
2022-08-14T16:53:21.189Z,43.60
2022-08-14T17:03:21.642Z,43.43
2022-08-14T17:13:27.420Z,44.56
2022-08-14T17:23:22.574Z,47.25
2022-08-14T17:33:23.143Z,44.20
2022-08-14T17:43:22.458Z,46.67
2022-08-14T17:53:22.199Z,48.38
2022-08-14T18:03:51.115Z,44.76
2022-08-14T18:13:51.521Z,47.53
2022-08-14T18:23:23.567Z,48.38
2022-08-14T18:33:22.552Z,49.02
2022-08-14T18:43:22.884Z,49.34
2022-08-14T18:53:24.612Z,50.85
2022-08-14T19:03:23.345Z,51.15
2022-08-14T19:13:23.469Z,51.60
2022-08-14T19:23:23.906Z,54.18
2022-08-14T19:33:24.879Z,52.99
2022-08-14T19:43:55.624Z,53.09
2022-08-14T19:53:25.062Z,53.94
2022-08-14T20:03:24.712Z,53.21
2022-08-14T20:13:24.456Z,57.22
2022-08-14T20:23:25.506Z,59.74
2022-08-14T20:33:25.788Z,59.34
2022-08-14T20:43:25.445Z,60.43
2022-08-14T20:53:26.261Z,59.36
2022-08-14T21:03:26.059Z,60.16
2022-08-14T21:14:26.795Z,62.21
2022-08-14T21:23:27.387Z,61.74
2022-08-14T21:33:26.891Z,61.55
2022-08-14T21:43:26.244Z,61.77
2022-08-14T21:53:26.256Z,63.90
2022-08-14T22:03:26.454Z,63.90
2022-08-14T22:13:27.714Z,64.07
2022-08-14T22:23:27.981Z,62.48
2022-08-14T22:33:31.153Z,64.40
2022-08-14T22:43:27.356Z,64.03
2022-08-14T22:53:29.334Z,64.73
2022-08-14T23:03:27.688Z,65.03
2022-08-14T23:13:27.772Z,65.36
2022-08-14T23:23:28.094Z,64.43
2022-08-14T23:33:28.119Z,64.96
2022-08-14T23:43:31.157Z,67.69
2022-08-14T23:53:48.332Z,70.26
